Terminal Aerodrome Forecast
Issued by NWS Cleveland, OH

Home | Current Version | Previous Version | Graphics & Text | Print | Product List | Glossary On
Versions: 1 2 3 4 5 6 7 8 9 10 11 12 13 14 15 16 17 18 19 20 21 22 23 24 25 26
000
FTUS41 KCLE 171100
TAFCLE
TAF
KCLE 171125Z 1712/1818 15014G22KT P6SM BKN250
     FM172300 18008KT P6SM SCT040 OVC200=

USA.gov is the U.S. government's official web portal to all federal, state and local government web resources and services.